Time;durP1;ratioP1;P1;durP2;ratioP2;P2;SDS_P1;SDS_P2;PMS_P1;PMS_P2;Temp;Humidity;BMP_temperature;BMP_pressure;BME280_temperature;BME280_humidity;BME280_pressure;Samples;Min_cycle;Max_cycle;Signal;HPM_P1;HPM_P2
2021/11/12 00:12:44;;;;;;;25.37;22.77;;;2.50;99.90;;;;;;5046904;28;20432;-67
2021/11/12 00:15:12;;;;;;;23.00;19.73;;;2.50;99.90;;;;;;5030969;28;20448;-67
2021/11/12 00:17:38;;;;;;;25.13;22.43;;;2.70;99.90;;;;;;5030234;28;20820;-68
2021/11/12 00:20:04;;;;;;;23.90;21.40;;;2.80;99.90;;;;;;5042362;28;20440;-67
2021/11/12 00:22:30;;;;;;;25.50;21.00;;;2.80;99.90;;;;;;5031384;28;20562;-67
2021/11/12 00:24:59;;;;;;;28.50;23.57;;;2.80;99.90;;;;;;5039811;28;20527;-67
2021/11/12 00:27:26;;;;;;;29.80;24.73;;;2.80;99.90;;;;;;5040167;28;20482;-67
2021/11/12 00:38:13;;;;;;;27.13;22.87;;;2.80;99.90;;;;;;5000254;28;20512;-67
2021/11/12 00:40:50;;;;;;;25.30;22.60;;;2.60;99.90;;;;;;5000095;28;20444;-68
2021/11/12 00:43:40;;;;;;;30.13;24.40;;;2.50;99.90;;;;;;5023042;28;20433;-67
2021/11/12 00:46:18;;;;;;;29.30;23.07;;;2.60;99.90;;;;;;5028639;28;20839;-67
2021/11/12 00:48:49;;;;;;;29.20;24.00;;;2.70;99.90;;;;;;5036497;28;20529;-67
2021/11/12 00:53:50;;;;;;;27.30;22.70;;;2.40;99.90;;;;;;5031398;28;20810;-67
2021/11/12 00:56:17;;;;;;;26.00;22.23;;;2.40;99.90;;;;;;5040322;28;20174;-68
2021/11/12 00:58:43;;;;;;;27.53;24.63;;;2.40;99.90;;;;;;5046505;28;20525;-67
2021/11/12 01:01:09;;;;;;;25.40;22.60;;;2.50;99.90;;;;;;5037097;28;20929;-67
2021/11/12 01:03:35;;;;;;;29.00;23.60;;;2.60;99.90;;;;;;5040749;28;20428;-68
2021/11/12 01:06:00;;;;;;;23.70;20.67;;;2.60;99.90;;;;;;5031768;28;20424;-67
2021/11/12 01:08:27;;;;;;;25.53;22.77;;;2.40;99.90;;;;;;5031454;28;20577;-68
2021/11/12 01:10:54;;;;;;;25.37;21.80;;;2.30;99.90;;;;;;5028652;28;20250;-67
2021/11/12 01:13:20;;;;;;;26.13;22.83;;;2.30;99.90;;;;;;5035486;28;20440;-67
2021/11/12 01:15:46;;;;;;;26.93;22.47;;;2.30;99.90;;;;;;5032010;28;20433;-67
2021/11/12 01:18:12;;;;;;;26.53;22.37;;;2.40;99.90;;;;;;5037442;28;20453;-67
2021/11/12 01:20:39;;;;;;;25.53;22.90;;;2.40;99.90;;;;;;5047638;28;20947;-68
2021/11/12 01:23:05;;;;;;;28.80;24.53;;;2.30;99.90;;;;;;5050891;28;20201;-68
2021/11/12 01:25:31;;;;;;;31.00;23.60;;;2.20;99.90;;;;;;5027165;28;20456;-68
2021/11/12 01:27:56;;;;;;;27.30;23.73;;;2.10;99.90;;;;;;5031194;28;20970;-68
2021/11/12 01:30:22;;;;;;;29.30;22.87;;;2.10;99.90;;;;;;5034566;28;20553;-67
2021/11/12 01:32:49;;;;;;;30.53;24.10;;;2.10;99.90;;;;;;5048010;28;20717;-67
2021/11/12 01:35:17;;;;;;;29.80;25.27;;;2.10;99.90;;;;;;5033652;28;20170;-67
2021/11/12 01:37:44;;;;;;;34.37;26.77;;;2.10;99.90;;;;;;5024974;28;20445;-68
2021/11/12 01:40:19;;;;;;;33.77;25.40;;;2.10;99.90;;;;;;5022205;28;20814;-67
2021/11/12 01:43:09;;;;;;;30.23;23.30;;;2.10;99.90;;;;;;5044704;28;20945;-67
2021/11/12 01:45:47;;;;;;;30.63;23.73;;;2.30;99.90;;;;;;5034912;28;20930;-67
2021/11/12 01:48:27;;;;;;;35.90;25.83;;;2.20;99.90;;;;;;5042165;28;20472;-67
2021/11/12 01:51:05;;;;;;;35.53;26.23;;;2.20;99.90;;;;;;5034994;28;20494;-67
2021/11/12 01:53:41;;;;;;;31.77;26.30;;;2.10;99.90;;;;;;5038912;28;20429;-67
2021/11/12 01:59:06;;;;;;;33.13;25.53;;;2.40;99.90;;;;;;5044730;28;20452;-66
2021/11/12 02:01:40;;;;;;;29.73;22.77;;;2.50;99.90;;;;;;5038984;28;20446;-67
2021/11/12 02:04:07;;;;;;;27.63;24.17;;;2.30;99.90;;;;;;5037393;28;20432;-67
2021/11/12 02:06:33;;;;;;;30.50;24.80;;;2.20;99.90;;;;;;5040494;28;20433;-67
2021/11/12 02:09:00;;;;;;;31.70;25.20;;;2.10;99.90;;;;;;5026458;28;20456;-67
2021/11/12 02:11:26;;;;;;;29.80;24.67;;;2.10;99.90;;;;;;5045473;28;20990;-68
2021/11/12 02:13:52;;;;;;;26.70;23.80;;;2.00;99.90;;;;;;5035426;28;20421;-67
2021/11/12 02:16:26;;;;;;;29.37;24.17;;;2.00;99.90;;;;;;5022886;28;20174;-67
2021/11/12 02:18:52;;;;;;;32.73;25.60;;;2.10;99.90;;;;;;5022750;28;20475;-67
2021/11/12 02:21:26;;;;;;;28.63;22.87;;;2.20;99.90;;;;;;5027540;28;20471;-67
2021/11/12 02:24:00;;;;;;;32.00;25.93;;;2.20;99.90;;;;;;5036200;28;20286;-67
2021/11/12 02:26:31;;;;;;;27.87;23.40;;;2.20;99.90;;;;;;5030296;28;20441;-67
2021/11/12 02:28:58;;;;;;;32.50;26.10;;;2.10;99.90;;;;;;5025466;28;20447;-67
2021/11/12 02:31:25;;;;;;;30.00;25.07;;;2.10;99.90;;;;;;5043051;28;20925;-67
2021/11/12 02:33:53;;;;;;;28.33;24.70;;;2.30;99.90;;;;;;5032218;28;20425;-67
2021/11/12 02:36:19;;;;;;;25.77;23.00;;;2.30;99.90;;;;;;5034329;28;20448;-67
2021/11/12 02:38:51;;;;;;;30.33;23.97;;;2.30;99.90;;;;;;5048047;28;20546;-67
2021/11/12 02:41:18;;;;;;;29.67;23.53;;;2.30;99.90;;;;;;5038979;28;20173;-67
2021/11/12 02:43:46;;;;;;;27.77;23.40;;;2.20;99.90;;;;;;5048273;28;20436;-68
2021/11/12 02:46:14;;;;;;;31.80;25.40;;;2.10;99.90;;;;;;5046238;28;20424;-67
2021/11/12 02:48:42;;;;;;;27.80;22.90;;;1.90;99.90;;;;;;5032312;28;20471;-68
2021/11/12 02:51:12;;;;;;;30.17;25.90;;;1.90;99.90;;;;;;5043145;28;20420;-67
2021/11/12 02:53:38;;;;;;;27.33;22.77;;;1.90;99.90;;;;;;5033467;28;20422;-67
2021/11/12 02:56:09;;;;;;;26.47;21.83;;;1.90;99.90;;;;;;5035114;28;20432;-67
2021/11/12 02:58:37;;;;;;;25.40;22.20;;;2.00;99.90;;;;;;5034376;28;20510;-67
2021/11/12 03:01:04;;;;;;;28.37;24.57;;;2.10;99.90;;;;;;5035720;28;20428;-67
2021/11/12 03:03:29;;;;;;;26.30;22.50;;;2.10;99.90;;;;;;5037377;28;20428;-67
2021/11/12 03:05:56;;;;;;;27.50;23.33;;;2.10;99.90;;;;;;5044154;28;20439;-67
2021/11/12 03:08:21;;;;;;;29.20;23.57;;;2.00;99.90;;;;;;5043162;28;20203;-67
2021/11/12 03:10:49;;;;;;;28.27;23.90;;;1.90;99.90;;;;;;5044115;28;20424;-67
2021/11/12 03:13:15;;;;;;;29.87;25.30;;;1.80;99.90;;;;;;5041876;28;20701;-68
2021/11/12 03:15:40;;;;;;;27.73;23.00;;;1.80;99.90;;;;;;5043724;28;20433;-67
2021/11/12 03:18:06;;;;;;;27.13;22.07;;;1.90;99.90;;;;;;5031105;28;20194;-67
2021/11/12 03:20:33;;;;;;;29.47;22.77;;;2.00;99.90;;;;;;5030209;28;20175;-67
2021/11/12 03:23:04;;;;;;;26.10;21.40;;;2.10;99.90;;;;;;5031150;28;20436;-68
2021/11/12 03:25:46;;;;;;;24.27;20.97;;;1.90;99.90;;;;;;5038883;28;20466;-67
2021/11/12 03:46:50;;;;;;;26.20;21.93;;;1.90;99.90;;;;;;5039455;28;20469;-67
2021/11/12 04:00:00;;;;;;;24.30;21.37;;;1.90;99.90;;;;;;5032121;28;20425;-67
2021/11/12 04:02:58;;;;;;;26.83;21.57;;;1.70;99.90;;;;;;5022342;28;20288;-68
2021/11/12 04:41:24;;;;;;;24.03;20.07;;;1.80;99.90;;;;;;5026156;28;20543;-68
2021/11/12 05:10:43;;;;;;;25.20;19.47;;;1.10;99.90;;;;;;5045239;28;20984;-68
2021/11/12 05:13:25;;;;;;;23.47;20.97;;;1.10;99.90;;;;;;5042594;28;21009;-68
2021/11/12 05:51:39;;;;;;;28.63;20.97;;;1.20;99.90;;;;;;5045157;28;20440;-68
2021/11/12 05:56:54;;;;;;;34.90;28.67;;;1.40;99.90;;;;;;5039570;28;20435;-68
2021/11/12 05:59:20;;;;;;;37.23;29.13;;;1.30;99.90;;;;;;5043630;28;20534;-68
2021/11/12 06:01:46;;;;;;;33.47;27.10;;;1.30;99.90;;;;;;5041011;28;20958;-68
2021/11/12 06:04:12;;;;;;;34.37;25.70;;;1.40;99.90;;;;;;5047701;28;20181;-69
2021/11/12 06:06:38;;;;;;;39.77;24.40;;;1.40;99.90;;;;;;5050043;28;20935;-68
2021/11/12 06:09:04;;;;;;;31.10;24.93;;;1.30;99.90;;;;;;5037537;28;20456;-68
2021/11/12 06:11:30;;;;;;;71.60;25.93;;;1.40;99.90;;;;;;5027125;28;20228;-68
2021/11/12 06:13:57;;;;;;;35.87;27.13;;;1.50;99.90;;;;;;5033744;28;20429;-69
2021/11/12 06:16:23;;;;;;;35.23;25.57;;;1.60;99.90;;;;;;5047639;28;20200;-68
2021/11/12 06:18:49;;;;;;;34.97;25.90;;;1.60;99.90;;;;;;5048356;28;20484;-68
2021/11/12 06:21:15;;;;;;;42.43;24.90;;;1.70;99.90;;;;;;5042224;28;20435;-68
2021/11/12 06:23:41;;;;;;;84.47;26.97;;;1.70;99.90;;;;;;5042794;28;20185;-67
2021/11/12 06:26:07;;;;;;;46.80;26.40;;;1.80;99.90;;;;;;5047605;28;20178;-69
2021/11/12 06:28:32;;;;;;;121.60;28.90;;;1.90;99.90;;;;;;5034505;28;20200;-69
2021/11/12 06:31:00;;;;;;;72.33;27.43;;;2.00;99.90;;;;;;5039323;28;20424;-68
2021/11/12 06:33:26;;;;;;;55.63;27.00;;;2.00;99.90;;;;;;5043378;28;20205;-67
2021/11/12 06:35:52;;;;;;;56.17;27.33;;;2.00;99.90;;;;;;5038944;28;20428;-68
2021/11/12 06:38:21;;;;;;;36.43;25.30;;;2.10;99.90;;;;;;5042689;28;20444;-69
2021/11/12 06:40:47;;;;;;;47.43;28.60;;;2.10;99.90;;;;;;5040926;28;20162;-69
2021/11/12 06:43:29;;;;;;;38.27;26.90;;;2.10;99.90;;;;;;5048559;28;20438;-69
2021/11/12 06:51:24;;;;;;;95.23;29.30;;;2.20;99.90;;;;;;5046608;28;20487;-68
2021/11/12 06:53:52;;;;;;;75.57;30.17;;;2.30;99.90;;;;;;5032946;28;20428;-68
2021/11/12 06:56:19;;;;;;;56.67;27.30;;;2.40;99.90;;;;;;5034040;28;20439;-67
2021/11/12 06:58:46;;;;;;;43.63;28.90;;;2.50;99.90;;;;;;5035347;28;20560;-69
2021/11/12 07:01:11;;;;;;;55.03;31.40;;;2.50;99.90;;;;;;5047966;28;20450;-68
2021/11/12 07:03:37;;;;;;;67.63;30.10;;;2.40;99.90;;;;;;5032949;28;20428;-68
2021/11/12 07:06:03;;;;;;;99.47;33.60;;;2.20;99.90;;;;;;5036953;28;20644;-68
2021/11/12 07:08:29;;;;;;;150.70;32.53;;;2.00;99.90;;;;;;5039628;28;20691;-67
2021/11/12 07:10:56;;;;;;;182.63;35.57;;;2.10;99.90;;;;;;5035774;28;20177;-68
2021/11/12 07:13:28;;;;;;;74.47;29.80;;;2.20;99.90;;;;;;5048165;28;20516;-68
2021/11/12 07:15:58;;;;;;;61.00;31.87;;;2.30;99.90;;;;;;5034688;28;20433;-68
2021/11/12 07:18:26;;;;;;;50.60;30.90;;;2.30;99.90;;;;;;5034287;28;20490;-68
2021/11/12 07:20:53;;;;;;;65.03;31.53;;;2.50;99.90;;;;;;5036849;28;20460;-67
2021/11/12 07:23:20;;;;;;;65.73;31.07;;;2.70;99.90;;;;;;5036155;28;20498;-68
2021/11/12 07:25:46;;;;;;;58.40;30.90;;;2.80;99.90;;;;;;5018955;28;20433;-68
2021/11/12 07:28:13;;;;;;;70.40;28.97;;;2.90;99.90;;;;;;5005170;28;20453;-68
2021/11/12 07:30:41;;;;;;;91.30;31.83;;;2.90;99.90;;;;;;5021724;28;20517;-67
2021/11/12 07:33:08;;;;;;;76.43;29.67;;;2.80;99.90;;;;;;5024146;28;20448;-68
2021/11/12 07:35:38;;;;;;;64.93;29.43;;;2.90;99.90;;;;;;5025504;28;20516;-67
2021/11/12 07:38:13;;;;;;;57.40;28.20;;;2.90;99.90;;;;;;5024013;28;20453;-68
2021/11/12 07:48:32;;;;;;;68.37;31.27;;;3.10;99.90;;;;;;5021801;28;20487;-67
2021/11/12 07:50:58;;;;;;;68.33;28.17;;;3.30;99.90;;;;;;5023414;28;20498;-66
2021/11/12 07:53:25;;;;;;;80.23;30.30;;;3.40;99.90;;;;;;5020103;28;21109;-69
2021/11/12 07:55:53;;;;;;;97.33;29.27;;;3.50;99.90;;;;;;5018213;28;20580;-68
2021/11/12 07:58:19;;;;;;;101.17;30.77;;;3.70;99.90;;;;;;5022309;28;20453;-67
2021/11/12 08:00:45;;;;;;;62.47;27.20;;;3.80;99.90;;;;;;5023932;28;20437;-67
2021/11/12 08:03:11;;;;;;;66.13;28.77;;;3.90;99.90;;;;;;5025826;28;20530;-69
2021/11/12 08:05:38;;;;;;;114.63;30.30;;;3.90;99.90;;;;;;5020481;28;20205;-67
2021/11/12 08:08:07;;;;;;;57.63;31.53;;;4.00;99.90;;;;;;5021518;28;20202;-67
2021/11/12 08:10:39;;;;;;;90.53;29.63;;;4.10;99.90;;;;;;5023774;28;20460;-68
2021/11/12 08:13:12;;;;;;;70.57;28.90;;;4.30;99.90;;;;;;5023037;28;20436;-67
2021/11/12 08:15:50;;;;;;;71.03;28.40;;;4.30;99.90;;;;;;5023019;28;20879;-66
2021/11/12 08:20:59;;;;;;;57.00;28.80;;;4.50;99.90;;;;;;5022037;28;20464;-68
2021/11/12 08:23:31;;;;;;;50.47;26.23;;;4.60;99.90;;;;;;5026745;28;20444;-68
2021/11/12 08:26:16;;;;;;;38.70;26.97;;;4.60;99.90;;;;;;5023650;28;20432;-68
2021/11/12 08:33:59;;;;;;;36.53;26.80;;;5.10;99.90;;;;;;5026988;28;20441;-67
2021/11/12 08:36:39;;;;;;;52.47;28.57;;;5.50;99.90;;;;;;5024917;28;20167;-67
2021/11/12 08:41:54;;;;;;;33.37;25.77;;;5.10;99.90;;;;;;5027417;28;21014;-67
2021/11/12 08:44:24;;;;;;;36.53;26.57;;;5.40;99.90;;;;;;5025904;28;20432;-67
2021/11/12 08:47:05;;;;;;;34.97;24.43;;;6.20;99.90;;;;;;5024554;28;20945;-68
2021/11/12 08:49:32;;;;;;;28.73;24.47;;;7.30;99.90;;;;;;5027527;28;20472;-68
2021/11/12 08:52:00;;;;;;;32.10;28.40;;;8.10;99.90;;;;;;5025440;28;20793;-68
2021/11/12 08:54:31;;;;;;;26.27;22.77;;;8.80;99.90;;;;;;5027456;28;20436;-68
2021/11/12 08:56:57;;;;;;;25.57;22.93;;;9.10;99.90;;;;;;5023939;28;20436;-68
2021/11/12 08:59:23;;;;;;;26.00;23.30;;;9.40;99.90;;;;;;5026084;28;20542;-67
2021/11/12 09:01:50;;;;;;;27.73;24.03;;;9.90;99.90;;;;;;5026364;28;20721;-67
2021/11/12 09:04:15;;;;;;;30.43;26.27;;;10.40;99.90;;;;;;5028203;28;20448;-67
2021/11/12 09:06:42;;;;;;;36.63;27.03;;;11.00;99.90;;;;;;5023436;28;20435;-67
2021/11/12 09:09:08;;;;;;;29.73;25.70;;;11.30;99.90;;;;;;5027602;28;20285;-67
2021/11/12 09:11:34;;;;;;;29.97;25.20;;;11.30;99.90;;;;;;5028530;28;20547;-68
2021/11/12 09:14:05;;;;;;;30.03;26.70;;;11.00;99.90;;;;;;5027220;28;20433;-68
2021/11/12 09:16:34;;;;;;;28.73;24.50;;;10.70;99.90;;;;;;5023459;28;20304;-67
2021/11/12 09:19:00;;;;;;;30.57;24.90;;;10.40;99.90;;;;;;5027200;28;20464;-68
2021/11/12 09:21:26;;;;;;;28.70;25.70;;;9.60;99.90;;;;;;5026171;28;21016;-68
2021/11/12 09:23:53;;;;;;;29.90;26.77;;;9.40;99.90;;;;;;5026823;28;20433;-67
2021/11/12 09:26:19;;;;;;;27.57;24.80;;;9.20;99.90;;;;;;5023548;28;20548;-67
2021/11/12 09:28:44;;;;;;;33.43;24.77;;;9.30;99.90;;;;;;5025684;28;20563;-68
2021/11/12 09:31:10;;;;;;;30.30;24.87;;;9.30;99.90;;;;;;5026853;28;20541;-68
2021/11/12 09:33:37;;;;;;;32.23;25.90;;;9.70;99.90;;;;;;5024824;28;20188;-67
2021/11/12 09:36:06;;;;;;;29.30;26.30;;;10.20;99.90;;;;;;5023672;28;20277;-68
2021/11/12 09:38:32;;;;;;;30.63;27.43;;;10.40;99.90;;;;;;5026670;28;20503;-67
2021/11/12 09:40:57;;;;;;;31.60;27.03;;;10.80;99.90;;;;;;5025384;28;20520;-67
2021/11/12 09:43:24;;;;;;;29.50;25.90;;;10.90;99.90;;;;;;5026390;28;20189;-67
2021/11/12 09:45:50;;;;;;;29.90;26.77;;;10.80;99.90;;;;;;5022638;28;20178;-67
2021/11/12 09:48:16;;;;;;;28.23;25.27;;;10.60;99.90;;;;;;5025079;28;20556;-67
2021/11/12 09:50:42;;;;;;;32.07;27.00;;;10.40;99.90;;;;;;5026544;28;20465;-67
2021/11/12 09:53:07;;;;;;;26.57;23.93;;;10.40;99.90;;;;;;5025108;28;20557;-67
2021/11/12 09:55:33;;;;;;;30.80;27.47;;;10.10;99.90;;;;;;5024496;28;20441;-67
2021/11/12 09:58:00;;;;;;;32.50;26.83;;;9.60;99.90;;;;;;5022000;28;20201;-67
2021/11/12 10:00:27;;;;;;;33.90;27.43;;;9.30;99.90;;;;;;5026194;28;20175;-67
2021/11/12 10:02:54;;;;;;;31.40;28.13;;;8.70;99.90;;;;;;5025486;28;20935;-67
2021/11/12 10:05:42;;;;;;;32.90;29.17;;;8.60;99.90;;;;;;5025797;28;20447;-67
2021/11/12 10:08:41;;;;;;;32.40;28.70;;;8.60;99.90;;;;;;5024825;28;20460;-68
2021/11/12 10:11:09;;;;;;;30.93;27.47;;;8.60;99.90;;;;;;5024646;28;20437;-67
2021/11/12 10:13:41;;;;;;;31.33;27.93;;;9.10;99.90;;;;;;5026801;28;21056;-68
2021/11/12 10:19:02;;;;;;;30.37;27.17;;;12.60;99.90;;;;;;5024349;28;20790;-68
2021/11/12 10:21:28;;;;;;;29.73;26.70;;;15.10;99.90;;;;;;5026316;28;20802;-67
2021/11/12 10:24:09;;;;;;;31.20;28.30;;;17.00;98.10;;;;;;5025605;28;20797;-67
2021/11/12 10:26:36;;;;;;;29.13;25.80;;;18.60;92.50;;;;;;5022122;28;20523;-68
2021/11/12 10:29:06;;;;;;;28.83;26.23;;;20.00;87.80;;;;;;5025698;28;20512;-68
2021/11/12 10:31:42;;;;;;;28.30;25.60;;;21.00;78.90;;;;;;5024496;28;20437;-67
2021/11/12 10:34:24;;;;;;;29.03;26.50;;;21.50;73.00;;;;;;5024582;28;20436;-68
2021/11/12 10:36:54;;;;;;;31.80;28.77;;;21.90;68.40;;;;;;5021182;28;20436;-67
2021/11/12 10:39:34;;;;;;;31.97;29.13;;;21.20;66.70;;;;;;5025749;28;20461;-68
2021/11/12 10:42:06;;;;;;;32.13;29.03;;;21.60;66.00;;;;;;5024357;28;20452;-67
2021/11/12 10:44:37;;;;;;;31.90;29.00;;;22.10;63.80;;;;;;5025232;28;20502;-68
2021/11/12 10:47:04;;;;;;;31.00;27.80;;;22.30;62.10;;;;;;5022277;28;20468;-67
2021/11/12 10:49:34;;;;;;;34.07;30.80;;;23.00;60.80;;;;;;5024160;28;20467;-68
2021/11/12 10:52:12;;;;;;;33.07;30.07;;;23.40;58.70;;;;;;5024450;28;20437;-68
2021/11/12 10:54:49;;;;;;;32.20;29.30;;;23.80;57.30;;;;;;5026513;28;20468;-67
2021/11/12 10:57:16;;;;;;;32.17;28.97;;;24.40;56.00;;;;;;5022180;28;20527;-68
2021/11/12 10:59:54;;;;;;;32.47;29.63;;;24.90;54.70;;;;;;5026338;28;20970;-68
2021/11/12 11:02:24;;;;;;;32.87;29.87;;;24.90;53.30;;;;;;5026649;28;20448;-68
2021/11/12 11:04:50;;;;;;;33.37;30.07;;;25.50;52.90;;;;;;5025110;28;20521;-67
2021/11/12 11:07:21;;;;;;;31.73;28.53;;;26.10;51.10;;;;;;5021463;28;20966;-68
2021/11/12 11:09:47;;;;;;;34.47;31.00;;;26.20;50.40;;;;;;5024022;28;20335;-68
2021/11/12 11:12:34;;;;;;;31.07;28.37;;;26.20;49.40;;;;;;5023269;28;20519;-68
2021/11/12 11:15:25;;;;;;;31.10;28.20;;;27.40;48.90;;;;;;5026498;28;20212;-67
2021/11/12 11:18:06;;;;;;;33.90;30.43;;;27.80;47.30;;;;;;5021870;28;20496;-68
2021/11/12 11:20:34;;;;;;;31.20;28.10;;;27.90;46.70;;;;;;5021546;28;21012;-68
2021/11/12 11:23:01;;;;;;;31.40;28.40;;;28.10;45.90;;;;;;5021720;28;20498;-68
2021/11/12 11:25:28;;;;;;;32.37;29.77;;;28.40;45.30;;;;;;5023813;28;20490;-67
2021/11/12 11:27:56;;;;;;;34.23;31.30;;;28.50;44.60;;;;;;5021641;28;20459;-67
2021/11/12 11:30:23;;;;;;;32.47;29.50;;;27.30;44.40;;;;;;5023827;28;20571;-68
2021/11/12 11:32:49;;;;;;;33.57;30.50;;;26.60;46.20;;;;;;5024132;28;20539;-68
2021/11/12 11:35:16;;;;;;;39.30;35.40;;;27.30;45.40;;;;;;5023863;28;20433;-68
2021/11/12 11:37:43;;;;;;;32.60;29.80;;;27.70;44.70;;;;;;5022832;28;20452;-67
2021/11/12 11:40:12;;;;;;;31.17;28.33;;;27.90;44.60;;;;;;5023150;28;20452;-68
2021/11/12 11:42:43;;;;;;;31.00;28.30;;;27.50;44.40;;;;;;5024383;28;21144;-68
2021/11/12 11:45:18;;;;;;;28.93;26.53;;;26.90;45.30;;;;;;5023465;28;20441;-69
2021/11/12 11:47:45;;;;;;;31.03;28.43;;;26.60;45.50;;;;;;5020454;28;20559;-69
2021/11/12 11:50:32;;;;;;;29.47;27.07;;;26.40;45.50;;;;;;5025199;28;20552;-69
2021/11/12 11:53:23;;;;;;;30.13;27.47;;;26.00;46.40;;;;;;5023541;28;20720;-70
2021/11/12 11:55:49;;;;;;;28.70;26.27;;;26.70;45.70;;;;;;5021240;28;20519;-67
2021/11/12 11:58:39;;;;;;;29.43;26.93;;;27.60;45.10;;;;;;5023187;28;20458;-68
2021/11/12 12:01:33;;;;;;;27.17;24.97;;;28.30;44.40;;;;;;5024317;28;20452;-67
2021/11/12 12:04:11;;;;;;;29.87;27.10;;;28.30;44.40;;;;;;5023062;28;20483;-69
2021/11/12 12:07:01;;;;;;;29.70;27.40;;;28.60;43.70;;;;;;5021259;28;20432;-68
2021/11/12 12:09:47;;;;;;;27.97;25.80;;;28.50;43.40;;;;;;5023319;28;20479;-68
2021/11/12 12:12:33;;;;;;;28.57;26.23;;;29.30;43.00;;;;;;5017726;28;20522;-68
2021/11/12 12:15:05;;;;;;;30.33;27.80;;;30.00;42.60;;;;;;5018521;28;20444;-68
2021/11/12 12:17:45;;;;;;;28.77;26.37;;;30.00;41.70;;;;;;5015746;28;21358;-67
2021/11/12 12:31:40;;;;;;;28.80;26.50;;;30.30;40.20;;;;;;5022402;28;20531;-66
2021/11/12 13:25:47;;;;;;;34.10;31.13;;;28.20;38.80;;;;;;5026616;28;20483;-67
2021/11/12 13:28:29;;;;;;;35.77;32.20;;;27.90;38.80;;;;;;5024708;28;20479;-67
2021/11/12 13:31:08;;;;;;;35.03;32.10;;;26.70;39.50;;;;;;5025165;28;20495;-66
2021/11/12 13:33:52;;;;;;;36.07;32.77;;;27.00;40.10;;;;;;5026721;28;20515;-67
2021/11/12 13:36:23;;;;;;;35.20;32.10;;;26.40;40.70;;;;;;5023835;28;20432;-67
2021/11/12 13:38:48;;;;;;;35.33;32.10;;;25.60;41.30;;;;;;5026587;28;20476;-67
2021/11/12 13:41:16;;;;;;;35.97;33.07;;;22.80;44.20;;;;;;5028072;28;20887;-66
2021/11/12 13:43:45;;;;;;;36.37;33.10;;;21.30;46.70;;;;;;5028296;28;20235;-66
2021/11/12 13:46:12;;;;;;;37.60;33.40;;;19.90;48.90;;;;;;5022975;28;20447;-66
2021/11/12 13:48:53;;;;;;;39.63;36.10;;;18.60;50.90;;;;;;5025173;28;20473;-66
2021/11/12 13:51:28;;;;;;;39.17;35.47;;;16.50;54.30;;;;;;5025816;28;21004;-66
2021/11/12 13:53:54;;;;;;;37.60;34.20;;;15.20;58.00;;;;;;5026754;28;20444;-67
2021/11/12 13:56:19;;;;;;;39.80;36.00;;;14.30;60.50;;;;;;5022098;28;20439;-66
2021/11/12 13:58:45;;;;;;;40.60;36.30;;;13.70;64.20;;;;;;5025784;28;20210;-65
2021/11/12 14:01:21;;;;;;;41.57;37.47;;;13.00;67.80;;;;;;5025575;28;20194;-66
2021/11/12 14:03:48;;;;;;;41.30;36.80;;;12.70;71.90;;;;;;5029262;28;20242;-67
2021/11/12 14:06:14;;;;;;;40.33;35.87;;;12.40;75.20;;;;;;5024650;28;20482;-66
2021/11/12 14:08:45;;;;;;;39.67;35.83;;;12.30;78.70;;;;;;5026664;28;20954;-68
2021/11/12 14:11:26;;;;;;;41.50;37.10;;;11.80;83.50;;;;;;5028232;28;20567;-65
2021/11/12 14:13:58;;;;;;;42.80;36.47;;;11.40;89.60;;;;;;5028565;28;20443;-65
2021/11/12 14:16:34;;;;;;;39.90;33.30;;;11.00;94.10;;;;;;5025843;28;20560;-66
2021/11/12 14:27:40;;;;;;;49.20;37.90;;;10.00;99.90;;;;;;5026028;28;20528;-64
2021/11/12 14:38:28;;;;;;;49.50;36.80;;;8.80;99.90;;;;;;5030175;28;20476;-65
2021/11/12 14:52:02;;;;;;;45.20;34.43;;;8.50;99.90;;;;;;5030115;28;20436;-65
2021/11/12 14:54:36;;;;;;;43.00;33.70;;;8.40;99.90;;;;;;5026876;28;21024;-66
2021/11/12 14:57:05;;;;;;;40.73;32.57;;;8.00;99.90;;;;;;5024772;28;20452;-64
2021/11/12 14:59:34;;;;;;;39.23;31.93;;;7.80;99.90;;;;;;5026919;28;20499;-65
2021/11/12 15:02:02;;;;;;;37.83;29.00;;;7.70;99.90;;;;;;5027849;28;20473;-64
2021/11/12 15:04:28;;;;;;;34.77;29.43;;;7.40;99.90;;;;;;5026980;28;20604;-64
2021/11/12 15:06:55;;;;;;;39.80;30.70;;;7.40;99.90;;;;;;5024001;28;20989;-65
2021/11/12 15:09:28;;;;;;;32.13;26.93;;;7.30;99.90;;;;;;5027049;28;20264;-65
2021/11/12 15:11:54;;;;;;;37.07;29.30;;;7.20;99.90;;;;;;5029647;28;20441;-64
2021/11/12 15:14:30;;;;;;;31.77;26.93;;;7.00;99.90;;;;;;5030621;28;20437;-65
2021/11/12 15:16:56;;;;;;;43.53;25.50;;;6.90;99.90;;;;;;5024276;28;20257;-66
2021/11/12 15:19:23;;;;;;;33.63;26.97;;;6.90;99.90;;;;;;5025749;28;20935;-65
2021/11/12 15:22:11;;;;;;;31.30;25.93;;;6.80;99.90;;;;;;5026523;28;20973;-65
2021/11/12 15:24:48;;;;;;;31.73;24.67;;;6.70;99.90;;;;;;5026743;28;20432;-66
2021/11/12 15:29:55;;;;;;;29.97;25.70;;;6.60;99.90;;;;;;5026388;28;20465;-64
2021/11/12 15:32:27;;;;;;;33.40;22.87;;;6.40;99.90;;;;;;5025921;28;20798;-65
2021/11/12 15:34:56;;;;;;;31.77;25.57;;;6.40;99.90;;;;;;5028108;28;20808;-65
2021/11/12 15:37:32;;;;;;;32.67;24.67;;;6.50;99.90;;;;;;5023884;28;20943;-65
2021/11/12 15:40:08;;;;;;;32.07;23.87;;;6.40;99.90;;;;;;5026916;28;20433;-65
2021/11/12 15:45:08;;;;;;;30.50;25.47;;;6.20;99.90;;;;;;5027902;28;20520;-65
2021/11/12 15:47:40;;;;;;;34.30;28.07;;;6.30;99.90;;;;;;5023659;28;20236;-66
2021/11/12 15:50:11;;;;;;;32.43;25.83;;;6.30;99.90;;;;;;5026578;28;20484;-64
2021/11/12 15:52:55;;;;;;;30.90;25.43;;;6.30;99.90;;;;;;5024997;28;20421;-64
2021/11/12 15:55:31;;;;;;;32.43;24.30;;;6.20;99.90;;;;;;5026994;28;20432;-65
2021/11/12 16:04:34;;;;;;;32.13;24.50;;;5.90;99.90;;;;;;5007464;28;20499;-63
2021/11/12 16:14:50;;;;;;;33.47;26.47;;;5.70;99.90;;;;;;5022534;28;20624;-65
2021/11/12 16:19:57;;;;;;;32.43;24.97;;;5.60;99.90;;;;;;5022859;28;20817;-64
2021/11/12 16:27:32;;;;;;;45.43;28.70;;;5.40;99.90;;;;;;5021329;28;20610;-65
2021/11/12 16:30:02;;;;;;;40.90;28.27;;;5.40;99.90;;;;;;5023525;28;20456;-65
2021/11/12 16:32:36;;;;;;;51.67;28.73;;;5.30;99.90;;;;;;5023213;28;20578;-64
2021/11/12 16:35:02;;;;;;;50.97;29.43;;;5.30;99.90;;;;;;5024398;28;20441;-66
2021/11/12 16:37:29;;;;;;;41.33;29.33;;;5.20;99.90;;;;;;5019899;28;20452;-64
2021/11/12 16:45:11;;;;;;;42.50;27.80;;;5.10;99.90;;;;;;5050394;28;20443;-64
2021/11/12 16:57:54;;;;;;;70.83;28.30;;;5.50;99.90;;;;;;5049283;28;20455;-63
2021/11/12 17:00:48;;;;;;;65.83;28.80;;;5.40;99.90;;;;;;5036402;28;20859;-64
2021/11/12 17:48:48;;;;;;;101.93;31.57;;;4.80;99.90;;;;;;5026759;28;20556;-64
2021/11/12 17:51:29;;;;;;;73.70;28.60;;;4.80;99.90;;;;;;5022400;28;20527;-64
2021/11/12 18:02:24;;;;;;;128.90;33.13;;;4.60;99.90;;;;;;5033489;28;20448;-65
2021/11/12 18:05:09;;;;;;;62.90;28.53;;;4.50;99.90;;;;;;5044920;28;20428;-67
2021/11/12 18:07:49;;;;;;;106.77;33.67;;;4.50;99.90;;;;;;5040671;28;21014;-67
2021/11/12 21:47:08;;;;;;;45.93;26.13;;;2.20;99.90;;;;;;5040492;28;20437;-64
2021/11/12 21:49:33;;;;;;;41.60;24.63;;;2.20;99.90;;;;;;5049357;28;20479;-65
2021/11/12 21:52:01;;;;;;;35.43;25.00;;;2.30;99.90;;;;;;5040205;28;20698;-65
2021/11/12 21:54:26;;;;;;;33.27;25.87;;;2.30;99.90;;;;;;5046977;28;20171;-65
2021/11/12 21:56:52;;;;;;;28.70;25.07;;;2.30;99.90;;;;;;5044341;28;20431;-64
2021/11/12 21:59:18;;;;;;;33.93;24.47;;;2.40;99.90;;;;;;5040764;28;20550;-65
2021/11/12 22:01:45;;;;;;;29.80;23.07;;;2.40;99.90;;;;;;5033933;28;20273;-64
2021/11/12 22:04:10;;;;;;;29.10;23.60;;;2.40;99.90;;;;;;5051704;28;20257;-65
2021/11/12 22:06:36;;;;;;;28.83;23.70;;;2.50;99.90;;;;;;5048195;28;20518;-65
2021/11/12 22:09:03;;;;;;;28.93;24.27;;;2.50;99.90;;;;;;5038761;28;20207;-64
2021/11/12 22:11:29;;;;;;;27.80;21.77;;;2.50;99.90;;;;;;5046077;28;20794;-64
2021/11/12 22:13:55;;;;;;;30.93;24.20;;;2.50;99.90;;;;;;5050305;28;20443;-65
2021/11/12 22:16:21;;;;;;;29.80;24.63;;;2.50;99.90;;;;;;5052158;28;20178;-64
2021/11/12 22:18:48;;;;;;;28.27;23.57;;;2.50;99.90;;;;;;5051720;28;20594;-65
2021/11/12 22:21:15;;;;;;;27.00;22.50;;;2.60;99.90;;;;;;5040804;28;20448;-64
2021/11/12 22:23:41;;;;;;;31.33;24.50;;;2.60;99.90;;;;;;5041305;28;20501;-64
2021/11/12 22:26:06;;;;;;;29.83;24.73;;;2.60;99.90;;;;;;5044578;28;20433;-64
2021/11/12 22:28:34;;;;;;;30.10;24.70;;;2.50;99.90;;;;;;5039718;28;20205;-64
2021/11/12 22:31:01;;;;;;;31.53;25.33;;;2.50;99.90;;;;;;5043558;28;20552;-64
2021/11/12 22:33:28;;;;;;;30.47;24.73;;;2.40;99.90;;;;;;5037149;28;20428;-65
2021/11/12 22:35:54;;;;;;;32.90;25.50;;;2.50;99.90;;;;;;5039149;28;20429;-64